createdAt,value
2017-09-23T00:00:52.200Z,7.90
2017-09-23T00:01:52.248Z,7.90
2017-09-23T00:02:52.249Z,7.90
2017-09-23T00:03:52.201Z,7.60
2017-09-23T00:04:52.264Z,7.60
2017-09-23T00:05:52.205Z,7.60
2017-09-23T00:06:52.250Z,7.60
2017-09-23T00:07:52.281Z,7.60
2017-09-23T00:08:52.213Z,7.60
2017-09-23T00:09:52.169Z,7.60
2017-09-23T00:10:52.205Z,7.60
2017-09-23T00:11:52.266Z,7.60
2017-09-23T00:12:52.203Z,7.60
2017-09-23T00:13:52.170Z,8.00
2017-09-23T00:14:52.156Z,8.00
2017-09-23T00:15:52.174Z,8.00
2017-09-23T00:16:52.176Z,8.00
2017-09-23T00:17:52.175Z,8.00
2017-09-23T00:18:52.144Z,8.00
2017-09-23T00:19:52.205Z,8.00
2017-09-23T00:20:52.173Z,8.00
2017-09-23T00:21:52.176Z,8.00
2017-09-23T00:22:52.174Z,8.00
2017-09-23T00:23:52.210Z,8.50
2017-09-23T00:24:52.274Z,8.50
2017-09-23T00:25:52.207Z,8.50
2017-09-23T00:26:52.260Z,8.50
2017-09-23T00:27:52.216Z,8.50
2017-09-23T00:28:52.213Z,8.50
2017-09-23T00:29:52.218Z,8.50
2017-09-23T00:30:52.217Z,8.50
2017-09-23T00:31:52.265Z,8.50
2017-09-23T00:32:52.212Z,8.50
2017-09-23T00:33:52.172Z,7.00
2017-09-23T00:34:52.187Z,7.00
2017-09-23T00:35:52.217Z,7.00
2017-09-23T00:36:52.154Z,7.00
2017-09-23T00:37:52.152Z,7.00
2017-09-23T00:38:52.153Z,7.00
2017-09-23T00:39:52.219Z,7.00
2017-09-23T00:40:52.186Z,7.00
2017-09-23T00:41:52.156Z,7.00
2017-09-23T00:42:52.187Z,7.00
2017-09-23T00:43:52.226Z,8.60
2017-09-23T00:44:52.285Z,8.60
2017-09-23T00:45:52.275Z,8.60
2017-09-23T00:46:52.297Z,8.60
2017-09-23T00:47:52.277Z,8.60
2017-09-23T00:48:52.228Z,8.60
2017-09-23T00:49:52.228Z,8.60
2017-09-23T00:50:52.296Z,8.60
2017-09-23T00:51:52.278Z,8.60
2017-09-23T00:52:52.274Z,8.60
2017-09-23T00:53:52.277Z,7.90
2017-09-23T00:54:52.295Z,7.90
2017-09-23T00:55:52.233Z,7.90
2017-09-23T00:56:52.280Z,7.90
2017-09-23T00:57:52.279Z,7.90
2017-09-23T00:58:52.235Z,7.90
2017-09-23T00:59:52.227Z,7.90
2017-09-23T01:00:52.230Z,7.90
2017-09-23T01:01:52.310Z,7.90
2017-09-23T01:02:52.237Z,7.90
2017-09-23T01:03:52.205Z,7.20
2017-09-23T01:04:52.231Z,7.20
2017-09-23T01:05:52.275Z,7.20
2017-09-23T01:06:52.229Z,7.20
2017-09-23T01:07:52.229Z,7.20
2017-09-23T01:08:52.205Z,7.20
2017-09-23T01:09:52.276Z,7.20
2017-09-23T01:10:52.276Z,7.20
2017-09-23T01:11:52.267Z,7.20
2017-09-23T01:12:52.215Z,7.20
2017-09-23T01:13:52.286Z,8.10
2017-09-23T01:14:52.187Z,8.10
2017-09-23T01:15:52.242Z,8.10
2017-09-23T01:16:52.239Z,8.10
2017-09-23T01:17:52.244Z,8.10
2017-09-23T01:18:52.243Z,8.10
2017-09-23T01:19:52.197Z,8.10
2017-09-23T01:20:52.296Z,8.10
2017-09-23T01:21:52.288Z,8.10
2017-09-23T01:22:52.289Z,8.10
2017-09-23T01:23:52.296Z,7.40
2017-09-23T01:24:52.262Z,7.40
2017-09-23T01:25:52.249Z,7.40
2017-09-23T01:26:52.248Z,7.40
2017-09-23T01:27:52.296Z,7.40
2017-09-23T01:28:52.300Z,7.40
2017-09-23T01:29:52.301Z,7.40
2017-09-23T01:30:52.325Z,7.40
2017-09-23T01:31:52.298Z,7.40
2017-09-23T01:32:52.312Z,7.40
2017-09-23T01:33:52.242Z,7.40
2017-09-23T01:34:52.195Z,7.40
2017-09-23T01:35:52.284Z,7.40
2017-09-23T01:36:52.246Z,7.40
2017-09-23T01:37:52.229Z,7.40
2017-09-23T01:38:52.196Z,7.40
2017-09-23T01:39:52.269Z,7.40
2017-09-23T01:40:52.222Z,7.40
2017-09-23T01:41:52.226Z,7.40
2017-09-23T01:42:52.205Z,7.40
2017-09-23T01:43:52.201Z,8.00
2017-09-23T01:44:52.274Z,8.00
2017-09-23T01:45:52.243Z,8.00
2017-09-23T01:46:52.183Z,8.00
2017-09-23T01:47:52.208Z,8.00
2017-09-23T01:48:52.264Z,8.00
2017-09-23T01:49:52.219Z,8.00
2017-09-23T01:50:52.225Z,8.00
2017-09-23T01:51:52.173Z,8.00
2017-09-23T01:52:52.270Z,8.00
2017-09-23T01:53:52.257Z,8.00
2017-09-23T01:54:52.230Z,8.00
2017-09-23T01:55:52.235Z,8.00
2017-09-23T01:56:52.235Z,8.00
2017-09-23T01:57:52.260Z,8.00
2017-09-23T01:58:52.231Z,8.00
2017-09-23T01:59:52.271Z,8.00
2017-09-23T02:00:52.268Z,8.00
2017-09-23T02:01:52.286Z,8.00
2017-09-23T02:02:52.237Z,8.00
2017-09-23T02:03:52.272Z,7.50
2017-09-23T02:04:52.268Z,7.50
2017-09-23T02:05:52.277Z,7.50
2017-09-23T02:06:52.323Z,7.50
2017-09-23T02:07:52.333Z,7.50
2017-09-23T02:08:52.324Z,7.50
2017-09-23T02:09:52.342Z,7.50
2017-09-23T02:10:52.275Z,7.50
2017-09-23T02:11:52.323Z,7.50
2017-09-23T02:12:52.356Z,7.50
2017-09-23T02:13:52.223Z,7.40
2017-09-23T02:14:52.276Z,7.40
2017-09-23T02:15:52.327Z,7.40
2017-09-23T02:16:52.324Z,7.40
2017-09-23T02:17:52.327Z,7.40
2017-09-23T02:18:52.328Z,7.40
2017-09-23T02:19:52.330Z,7.40
2017-09-23T02:20:52.282Z,7.40
2017-09-23T02:21:52.328Z,7.40
2017-09-23T02:22:52.284Z,7.40
2017-09-23T02:23:52.290Z,7.80
2017-09-23T02:24:52.278Z,7.80
2017-09-23T02:25:52.258Z,7.80
2017-09-23T02:26:52.317Z,7.80
2017-09-23T02:27:52.256Z,7.80
2017-09-23T02:28:52.276Z,7.80
2017-09-23T02:29:52.257Z,7.80
2017-09-23T02:30:52.234Z,7.80
2017-09-23T02:31:52.320Z,7.80
2017-09-23T02:32:52.259Z,7.80
2017-09-23T02:33:52.286Z,8.30
2017-09-23T02:34:52.351Z,8.30
2017-09-23T02:35:52.284Z,8.30
2017-09-23T02:36:52.340Z,8.30
2017-09-23T02:37:52.354Z,8.30
2017-09-23T02:38:52.288Z,8.30
2017-09-23T02:39:52.290Z,8.30
2017-09-23T02:40:52.292Z,8.30
2017-09-23T02:41:52.296Z,8.30
2017-09-23T02:42:52.349Z,8.30
2017-09-23T02:43:52.362Z,7.60
2017-09-23T02:44:52.345Z,7.60
2017-09-23T02:45:52.348Z,7.60
2017-09-23T02:46:52.347Z,7.60
2017-09-23T02:47:52.302Z,7.60
2017-09-23T02:48:52.300Z,7.60
2017-09-23T02:49:52.300Z,7.60
2017-09-23T02:50:52.305Z,7.60
2017-09-23T02:51:52.373Z,7.60
2017-09-23T02:52:52.304Z,7.60
2017-09-23T02:53:52.335Z,7.50
2017-09-23T02:55:52.244Z,7.50
2017-09-23T02:56:52.312Z,7.50
2017-09-23T02:57:52.252Z,7.50
2017-09-23T02:58:52.351Z,7.50
2017-09-23T02:59:52.340Z,7.50
2017-09-23T03:00:52.273Z,7.50
2017-09-23T03:01:52.339Z,7.50
2017-09-23T03:02:52.264Z,7.50
2017-09-23T03:03:52.274Z,8.00
2017-09-23T03:04:52.276Z,8.00
2017-09-23T03:05:52.325Z,8.00
2017-09-23T03:06:52.326Z,8.00
2017-09-23T03:07:52.279Z,8.00
2017-09-23T03:08:52.279Z,8.00
2017-09-23T03:09:52.333Z,8.00
2017-09-23T03:10:52.332Z,8.00
2017-09-23T03:11:52.308Z,8.00
2017-09-23T03:12:52.326Z,8.00
2017-09-23T03:13:52.367Z,8.20
2017-09-23T03:14:52.374Z,8.20
2017-09-23T03:15:52.319Z,8.20
2017-09-23T03:16:52.363Z,8.20
2017-09-23T03:17:52.312Z,8.20
2017-09-23T03:18:52.377Z,8.20
2017-09-23T03:19:52.315Z,8.20
2017-09-23T03:20:52.320Z,8.20
2017-09-23T03:21:52.364Z,8.20
2017-09-23T03:22:52.378Z,8.20
2017-09-23T03:23:52.324Z,8.60
2017-09-23T03:24:52.373Z,8.60
2017-09-23T03:25:52.314Z,8.60
2017-09-23T03:26:52.367Z,8.60
2017-09-23T03:27:52.317Z,8.60
2017-09-23T03:28:52.383Z,8.60
2017-09-23T03:29:52.372Z,8.60
2017-09-23T03:30:52.326Z,8.60
2017-09-23T03:31:52.373Z,8.60
2017-09-23T03:32:52.373Z,8.60
2017-09-23T03:33:52.427Z,8.80
2017-09-23T03:34:52.325Z,8.80
2017-09-23T03:35:52.320Z,8.80
2017-09-23T03:36:52.321Z,8.80
2017-09-23T03:37:52.327Z,8.80
2017-09-23T03:38:52.326Z,8.80
2017-09-23T03:39:52.376Z,8.80
2017-09-23T03:40:52.327Z,8.80
2017-09-23T03:41:52.372Z,8.80
2017-09-23T03:42:52.330Z,8.80
2017-09-23T03:43:52.330Z,9.50
2017-09-23T03:44:52.332Z,9.50
2017-09-23T03:45:52.382Z,9.50
2017-09-23T03:46:52.377Z,9.50
2017-09-23T03:47:52.338Z,9.50
2017-09-23T03:48:52.290Z,9.50
2017-09-23T03:49:52.332Z,9.50
2017-09-23T03:50:52.381Z,9.50
2017-09-23T03:51:52.332Z,9.50
2017-09-23T03:52:52.382Z,9.50
2017-09-23T03:53:52.401Z,8.70
2017-09-23T03:54:52.335Z,8.70
2017-09-23T03:55:52.386Z,8.70
2017-09-23T03:56:52.341Z,8.70
2017-09-23T03:57:52.401Z,8.70
2017-09-23T03:58:52.345Z,8.70
2017-09-23T03:59:52.343Z,8.70
2017-09-23T04:00:52.392Z,8.70
2017-09-23T04:01:52.343Z,8.70
2017-09-23T04:02:52.402Z,8.70
2017-09-23T04:03:52.348Z,7.80
2017-09-23T04:04:52.344Z,7.80
2017-09-23T04:05:52.393Z,7.80
2017-09-23T04:06:52.345Z,7.80
2017-09-23T04:07:52.392Z,7.80
2017-09-23T04:08:52.418Z,7.80
2017-09-23T04:09:52.353Z,7.80
2017-09-23T04:10:52.411Z,7.80
2017-09-23T04:11:52.393Z,7.80
2017-09-23T04:12:52.397Z,7.80
2017-09-23T04:13:52.353Z,8.40
2017-09-23T04:14:52.347Z,8.40
2017-09-23T04:15:52.353Z,8.40
2017-09-23T04:16:52.401Z,8.40
2017-09-23T04:17:52.351Z,8.40
2017-09-23T04:18:52.361Z,8.40
2017-09-23T04:19:52.398Z,8.40
2017-09-23T04:20:52.412Z,8.40
2017-09-23T04:21:52.355Z,8.40
2017-09-23T04:22:52.415Z,8.40
2017-09-23T04:23:52.416Z,8.30
2017-09-23T04:24:52.360Z,8.30
2017-09-23T04:25:52.355Z,8.30
2017-09-23T04:26:52.358Z,8.30
2017-09-23T04:27:52.404Z,8.30
2017-09-23T04:28:52.401Z,8.30
2017-09-23T04:29:52.354Z,8.30
2017-09-23T04:30:52.364Z,8.30
2017-09-23T04:31:52.409Z,8.30
2017-09-23T04:32:52.359Z,8.30
2017-09-23T04:33:52.357Z,8.80
2017-09-23T04:34:52.302Z,8.80
2017-09-23T04:35:52.323Z,8.80
2017-09-23T04:36:52.352Z,8.80
2017-09-23T04:37:52.361Z,8.80
2017-09-23T04:38:52.327Z,8.80
2017-09-23T04:39:52.323Z,8.80
2017-09-23T04:40:52.361Z,8.80
2017-09-23T04:41:52.301Z,8.80
2017-09-23T04:42:52.348Z,8.80
2017-09-23T04:43:52.365Z,7.80
2017-09-23T04:44:52.367Z,7.80
2017-09-23T04:45:52.372Z,7.80
2017-09-23T04:46:52.419Z,7.80
2017-09-23T04:47:52.364Z,7.80
2017-09-23T04:48:52.367Z,7.80
2017-09-23T04:49:52.374Z,7.80
2017-09-23T04:50:52.415Z,7.80
2017-09-23T04:51:52.433Z,7.80
2017-09-23T04:52:52.414Z,7.80
2017-09-23T04:53:52.370Z,7.90
2017-09-23T04:54:52.476Z,7.90
2017-09-23T04:55:52.372Z,7.90
2017-09-23T04:56:52.371Z,7.90
2017-09-23T04:57:52.424Z,7.90
2017-09-23T04:58:52.398Z,7.90
2017-09-23T04:59:52.376Z,7.90
2017-09-23T05:00:52.436Z,7.90
2017-09-23T05:01:52.421Z,7.90
2017-09-23T05:02:52.378Z,7.90
2017-09-23T05:03:52.376Z,8.80
2017-09-23T05:04:52.372Z,8.80
2017-09-23T05:05:52.427Z,8.80
2017-09-23T05:06:52.377Z,8.80
2017-09-23T05:07:52.375Z,8.80
2017-09-23T05:08:52.424Z,8.80
2017-09-23T05:09:52.375Z,8.80
2017-09-23T05:10:52.376Z,8.80
2017-09-23T05:11:52.432Z,8.80
2017-09-23T05:12:52.457Z,8.80
2017-09-23T05:13:52.422Z,8.80
2017-09-23T05:14:52.428Z,8.80
2017-09-23T05:15:52.377Z,8.80
2017-09-23T05:16:52.431Z,8.80
2017-09-23T05:17:52.389Z,8.80
2017-09-23T05:18:52.390Z,8.80
2017-09-23T05:19:52.381Z,8.80
2017-09-23T05:20:52.438Z,8.80
2017-09-23T05:21:52.437Z,8.80
2017-09-23T05:22:52.450Z,8.80
2017-09-23T05:23:52.455Z,8.80
2017-09-23T05:24:52.461Z,8.70
2017-09-23T05:25:52.436Z,8.70
2017-09-23T05:26:52.436Z,8.70
2017-09-23T05:27:52.395Z,8.70
2017-09-23T05:28:52.339Z,8.70
2017-09-23T05:29:52.391Z,8.70
2017-09-23T05:30:52.440Z,8.70
2017-09-23T05:31:52.453Z,8.70
2017-09-23T05:32:52.440Z,8.70
2017-09-23T05:33:52.437Z,8.70
2017-09-23T05:34:52.423Z,8.50
2017-09-23T05:35:52.443Z,8.50
2017-09-23T05:36:52.395Z,8.50
2017-09-23T05:37:52.444Z,8.50
2017-09-23T05:38:52.466Z,8.50
2017-09-23T05:39:52.362Z,8.50
2017-09-23T05:40:52.401Z,8.50
2017-09-23T05:41:52.396Z,8.50
2017-09-23T05:42:52.469Z,8.50
2017-09-23T05:43:52.400Z,8.50
2017-09-23T05:44:52.358Z,9.30
2017-09-23T05:45:52.449Z,9.30
2017-09-23T05:46:52.559Z,9.30
2017-09-23T05:47:52.382Z,9.30
2017-09-23T05:48:52.452Z,9.30
2017-09-23T05:49:52.452Z,9.30
2017-09-23T05:50:52.387Z,9.30
2017-09-23T05:51:52.415Z,9.30
2017-09-23T05:52:52.448Z,9.30
2017-09-23T05:53:52.481Z,9.30
2017-09-23T05:54:52.350Z,8.20
2017-09-23T05:55:52.414Z,8.20
2017-09-23T05:56:52.412Z,8.20
2017-09-23T05:57:52.373Z,8.20
2017-09-23T05:58:52.387Z,8.20
2017-09-23T05:59:52.375Z,8.20
2017-09-23T06:00:52.419Z,8.20
2017-09-23T06:01:52.378Z,8.20
2017-09-23T06:02:52.479Z,8.20
2017-09-23T06:03:52.380Z,8.20
2017-09-23T06:04:52.409Z,8.50
2017-09-23T06:05:52.465Z,8.50
2017-09-23T06:06:52.459Z,8.50
2017-09-23T06:07:52.416Z,8.50
2017-09-23T06:08:52.408Z,8.50
2017-09-23T06:09:52.364Z,8.50
2017-09-23T06:10:52.471Z,8.50
2017-09-23T06:11:52.385Z,8.50
2017-09-23T06:12:52.415Z,8.50
2017-09-23T06:13:52.467Z,8.50
2017-09-23T06:14:52.399Z,8.30
2017-09-23T06:15:52.462Z,8.30
2017-09-23T06:16:52.430Z,8.30
2017-09-23T06:17:52.456Z,8.30
2017-09-23T06:18:52.412Z,8.30
2017-09-23T06:19:52.425Z,8.30
2017-09-23T06:20:52.429Z,8.30
2017-09-23T06:21:52.422Z,8.30
2017-09-23T06:22:52.387Z,8.30
2017-09-23T06:23:52.465Z,8.30
2017-09-23T06:24:52.455Z,9.40
2017-09-23T06:25:52.418Z,9.40
2017-09-23T06:26:52.387Z,9.40
2017-09-23T06:27:52.371Z,9.40
2017-09-23T06:28:52.397Z,9.40
2017-09-23T06:29:52.458Z,9.40
2017-09-23T06:30:52.436Z,9.40
2017-09-23T06:31:52.420Z,9.40
2017-09-23T06:32:52.409Z,9.40
2017-09-23T06:33:52.366Z,9.40
2017-09-23T06:34:52.365Z,9.00
2017-09-23T06:35:52.397Z,9.00
2017-09-23T06:36:52.396Z,9.00
2017-09-23T06:37:52.368Z,9.00
2017-09-23T06:38:52.427Z,9.00
2017-09-23T06:39:52.367Z,9.00
2017-09-23T06:40:52.369Z,9.00
2017-09-23T06:41:52.396Z,9.00
2017-09-23T06:42:52.371Z,9.00
2017-09-23T06:43:52.433Z,9.00
2017-09-23T06:44:52.475Z,9.80
2017-09-23T06:45:52.408Z,9.80
2017-09-23T06:46:52.455Z,9.80
2017-09-23T06:47:52.392Z,9.80
2017-09-23T06:48:52.434Z,9.80
2017-09-23T06:49:52.478Z,9.80
2017-09-23T06:50:52.401Z,9.80
2017-09-23T06:51:52.474Z,9.80
2017-09-23T06:52:52.445Z,9.80
2017-09-23T06:53:52.385Z,9.80
2017-09-23T06:54:52.441Z,10.40
2017-09-23T06:55:52.490Z,10.40
2017-09-23T06:56:52.400Z,10.40
2017-09-23T06:57:52.495Z,10.40
2017-09-23T06:58:52.443Z,10.40
2017-09-23T06:59:52.458Z,10.40
2017-09-23T07:00:52.448Z,10.40
2017-09-23T07:01:52.448Z,10.40
2017-09-23T07:02:52.501Z,10.40
2017-09-23T07:03:52.496Z,10.40
2017-09-23T07:04:52.448Z,12.20
2017-09-23T07:05:52.446Z,12.20
2017-09-23T07:06:52.452Z,12.20
2017-09-23T07:07:52.448Z,12.20
2017-09-23T07:08:52.520Z,12.20
2017-09-23T07:09:52.454Z,12.20
2017-09-23T07:10:52.410Z,12.20
2017-09-23T07:11:52.501Z,12.20
2017-09-23T07:12:52.505Z,12.20
2017-09-23T07:13:52.455Z,12.20
2017-09-23T07:14:52.499Z,11.10
2017-09-23T07:16:52.529Z,11.10
2017-09-23T07:17:52.453Z,11.10
2017-09-23T07:18:52.459Z,11.10
2017-09-23T07:19:52.509Z,11.10
2017-09-23T07:20:52.501Z,11.10
2017-09-23T07:21:52.467Z,11.10
2017-09-23T07:22:52.410Z,11.10
2017-09-23T07:23:52.460Z,11.10
2017-09-23T07:24:52.416Z,11.70
2017-09-23T07:25:52.456Z,11.70
2017-09-23T07:26:52.462Z,11.70
2017-09-23T07:27:52.507Z,11.70
2017-09-23T07:28:52.442Z,11.70
2017-09-23T07:29:52.514Z,11.70
2017-09-23T07:30:52.464Z,11.70
2017-09-23T07:31:52.516Z,11.70
2017-09-23T07:32:52.669Z,11.70
2017-09-23T07:33:52.515Z,11.70
2017-09-23T07:34:52.433Z,12.80
2017-09-23T07:35:52.462Z,12.80
2017-09-23T07:36:52.446Z,12.80
2017-09-23T07:37:52.539Z,12.80
2017-09-23T07:38:52.463Z,12.80
2017-09-23T07:39:52.477Z,12.80
2017-09-23T07:40:52.519Z,12.80
2017-09-23T07:41:52.420Z,12.80
2017-09-23T07:42:52.518Z,12.80
2017-09-23T07:43:52.471Z,12.80
2017-09-23T07:44:52.469Z,12.40
2017-09-23T07:45:52.522Z,12.40
2017-09-23T07:46:52.521Z,12.40
2017-09-23T07:47:52.531Z,12.40
2017-09-23T07:48:52.488Z,12.40
2017-09-23T07:49:52.469Z,12.40
2017-09-23T07:50:52.481Z,12.40
2017-09-23T07:51:52.521Z,12.40
2017-09-23T07:52:52.431Z,12.40
2017-09-23T07:53:52.523Z,12.40
2017-09-23T07:54:52.550Z,13.80
2017-09-23T07:55:52.530Z,13.80
2017-09-23T07:56:52.529Z,13.80
2017-09-23T07:57:52.528Z,13.80
2017-09-23T07:58:52.530Z,13.80
2017-09-23T07:59:52.460Z,13.80
2017-09-23T08:00:52.556Z,13.80
2017-09-23T08:01:52.436Z,13.80
2017-09-23T08:02:52.482Z,13.80
2017-09-23T08:03:52.476Z,13.80
2017-09-23T08:04:52.449Z,15.99
2017-09-23T08:05:52.447Z,15.99
2017-09-23T08:06:52.447Z,15.99
2017-09-23T08:07:52.422Z,15.99
2017-09-23T08:08:52.428Z,15.99
2017-09-23T08:09:52.406Z,15.99
2017-09-23T08:10:52.440Z,15.99
2017-09-23T08:11:52.493Z,15.99
2017-09-23T08:12:52.493Z,15.99
2017-09-23T08:13:52.430Z,15.99
2017-09-23T08:14:52.485Z,14.70
2017-09-23T08:15:52.439Z,14.70
2017-09-23T08:16:52.493Z,14.70
2017-09-23T08:17:52.535Z,14.70
2017-09-23T08:18:52.496Z,14.70
2017-09-23T08:19:52.488Z,14.70
2017-09-23T08:20:52.446Z,14.70
2017-09-23T08:21:52.541Z,14.70
2017-09-23T08:22:52.492Z,14.70
2017-09-23T08:23:52.562Z,14.70
2017-09-23T08:24:52.570Z,17.80
2017-09-23T08:25:52.500Z,17.80
2017-09-23T08:26:52.495Z,17.80
2017-09-23T08:27:52.570Z,17.80
2017-09-23T08:28:52.539Z,17.80
2017-09-23T08:29:52.500Z,17.80
2017-09-23T08:30:52.498Z,17.80
2017-09-23T08:31:52.496Z,17.80
2017-09-23T08:32:52.484Z,17.80
2017-09-23T08:33:52.452Z,17.80
2017-09-23T08:34:52.496Z,19.70
2017-09-23T08:35:52.505Z,19.70
2017-09-23T08:36:52.456Z,19.70
2017-09-23T08:37:52.543Z,19.70
2017-09-23T08:38:52.533Z,19.70
2017-09-23T08:39:52.510Z,19.70
2017-09-23T08:40:52.551Z,19.70
2017-09-23T08:41:52.547Z,19.70
2017-09-23T08:42:52.507Z,19.70
2017-09-23T08:43:52.461Z,19.70
2017-09-23T08:44:52.442Z,21.00
2017-09-23T08:45:52.442Z,21.00
2017-09-23T08:46:52.510Z,21.00
2017-09-23T08:47:52.515Z,21.00
2017-09-23T08:48:52.445Z,21.00
2017-09-23T08:49:52.472Z,21.00
2017-09-23T08:50:52.472Z,21.00
2017-09-23T08:51:52.528Z,21.00
2017-09-23T08:52:52.445Z,21.00
2017-09-23T08:53:52.458Z,21.00
2017-09-23T08:54:52.564Z,20.90
2017-09-23T08:55:52.464Z,20.90
2017-09-23T08:56:52.515Z,20.90
2017-09-23T08:57:52.516Z,20.90
2017-09-23T08:58:52.581Z,20.90
2017-09-23T08:59:52.479Z,20.90
2017-09-23T09:00:52.496Z,20.90
2017-09-23T09:01:52.515Z,20.90
2017-09-23T09:02:52.570Z,20.90
2017-09-23T09:03:52.574Z,20.90
2017-09-23T09:04:52.474Z,21.50
2017-09-23T09:05:52.459Z,21.50
2017-09-23T09:06:52.534Z,21.50
2017-09-23T09:07:52.463Z,21.50
2017-09-23T09:08:52.561Z,21.50
2017-09-23T09:09:52.561Z,21.50
2017-09-23T09:10:52.471Z,21.50
2017-09-23T09:11:52.496Z,21.50
2017-09-23T09:12:52.528Z,21.50
2017-09-23T09:13:52.466Z,21.50
2017-09-23T09:14:52.497Z,24.00
2017-09-23T09:15:52.462Z,24.00
2017-09-23T09:16:52.497Z,24.00
2017-09-23T09:17:52.495Z,24.00
2017-09-23T09:18:52.493Z,24.00
2017-09-23T09:19:52.497Z,24.00
2017-09-23T09:20:52.545Z,24.00
2017-09-23T09:21:52.492Z,24.00
2017-09-23T09:22:52.543Z,24.00
2017-09-23T09:23:52.467Z,24.00
2017-09-23T09:24:52.538Z,25.10
2017-09-23T09:25:52.487Z,25.10
2017-09-23T09:26:52.538Z,25.10
2017-09-23T09:27:52.535Z,25.10
2017-09-23T09:28:52.579Z,25.10
2017-09-23T09:29:52.535Z,25.10
2017-09-23T09:30:52.544Z,25.10
2017-09-23T09:31:52.583Z,25.10
2017-09-23T09:32:52.532Z,25.10
2017-09-23T09:33:52.578Z,25.10
2017-09-23T09:34:52.548Z,24.99
2017-09-23T09:35:52.512Z,24.99
2017-09-23T09:36:52.481Z,24.99
2017-09-23T09:37:52.550Z,24.99
2017-09-23T09:38:52.572Z,24.99
2017-09-23T09:39:52.486Z,24.99
2017-09-23T09:40:52.589Z,24.99
2017-09-23T09:41:52.533Z,24.99
2017-09-23T09:42:52.485Z,24.99
2017-09-23T09:43:52.554Z,24.99
2017-09-23T09:44:52.542Z,24.70
2017-09-23T09:45:52.595Z,24.70
2017-09-23T09:46:52.535Z,24.70
2017-09-23T09:47:52.611Z,24.70
2017-09-23T09:48:52.590Z,24.70
2017-09-23T09:49:52.542Z,24.70
2017-09-23T09:50:52.599Z,24.70
2017-09-23T09:51:52.597Z,24.70
2017-09-23T09:52:52.547Z,24.70
2017-09-23T09:53:52.593Z,24.70
2017-09-23T09:54:52.496Z,25.30
2017-09-23T09:55:52.499Z,25.30
2017-09-23T09:56:52.565Z,25.30
2017-09-23T09:57:52.563Z,25.30
2017-09-23T09:58:52.498Z,25.30
2017-09-23T09:59:52.516Z,25.30
2017-09-23T10:00:52.501Z,25.30
2017-09-23T10:01:52.526Z,25.30
2017-09-23T10:02:52.519Z,25.30
2017-09-23T10:03:52.520Z,25.30
2017-09-23T10:04:52.522Z,27.00
2017-09-23T10:05:52.524Z,27.00
2017-09-23T10:06:52.501Z,27.00
2017-09-23T10:07:52.556Z,27.00
2017-09-23T10:08:52.522Z,27.00
2017-09-23T10:09:52.523Z,27.00
2017-09-23T10:10:52.522Z,27.00
2017-09-23T10:11:52.527Z,27.00
2017-09-23T10:12:52.496Z,27.00
2017-09-23T10:13:52.525Z,27.00
2017-09-23T10:14:52.576Z,27.40
2017-09-23T10:15:52.554Z,27.40
2017-09-23T10:16:52.627Z,27.40
2017-09-23T10:17:52.562Z,27.40
2017-09-23T10:18:52.565Z,27.40
2017-09-23T10:19:52.517Z,27.40
2017-09-23T10:20:52.656Z,27.40
2017-09-23T10:21:52.562Z,27.40
2017-09-23T10:22:52.516Z,27.40
2017-09-23T10:23:52.568Z,27.40
2017-09-23T10:24:52.571Z,28.30
2017-09-23T10:25:52.551Z,28.30
2017-09-23T10:26:52.571Z,28.30
2017-09-23T10:27:52.561Z,28.30
2017-09-23T10:28:52.563Z,28.30
2017-09-23T10:29:52.516Z,28.30
2017-09-23T10:30:52.539Z,28.30
2017-09-23T10:31:52.613Z,28.30
2017-09-23T10:32:52.574Z,28.30
2017-09-23T10:33:52.565Z,28.30
2017-09-23T10:34:52.571Z,28.40
2017-09-23T10:35:52.571Z,28.40
2017-09-23T10:36:52.576Z,28.40
2017-09-23T10:37:52.645Z,28.40
2017-09-23T10:38:52.622Z,28.40
2017-09-23T10:39:52.638Z,28.40
2017-09-23T10:40:52.621Z,28.40
2017-09-23T10:41:52.572Z,28.40
2017-09-23T10:42:52.628Z,28.40
2017-09-23T10:43:52.621Z,28.40
2017-09-23T10:44:52.591Z,27.40
2017-09-23T10:45:52.531Z,27.40
2017-09-23T10:46:52.578Z,27.40
2017-09-23T10:47:52.621Z,27.40
2017-09-23T10:48:52.583Z,27.40
2017-09-23T10:49:52.593Z,27.40
2017-09-23T10:50:52.624Z,27.40
2017-09-23T10:51:52.575Z,27.40
2017-09-23T10:52:52.614Z,27.40
2017-09-23T10:53:52.586Z,27.40
2017-09-23T10:54:52.590Z,27.20
2017-09-23T10:55:52.578Z,27.20
2017-09-23T10:56:52.598Z,27.20
2017-09-23T10:57:52.579Z,27.20
2017-09-23T10:58:52.595Z,27.20
2017-09-23T10:59:52.591Z,27.20
2017-09-23T11:00:52.637Z,27.20
2017-09-23T11:01:52.585Z,27.20
2017-09-23T11:02:52.586Z,27.20
2017-09-23T11:03:52.540Z,27.20
2017-09-23T11:04:52.592Z,28.30
2017-09-23T11:05:52.574Z,28.30
2017-09-23T11:06:52.584Z,28.30
2017-09-23T11:07:52.639Z,28.30
2017-09-23T11:08:52.550Z,28.30
2017-09-23T11:09:52.638Z,28.30
2017-09-23T11:10:52.549Z,28.30
2017-09-23T11:11:52.658Z,28.30
2017-09-23T11:12:52.610Z,28.30
2017-09-23T11:13:52.662Z,28.30
2017-09-23T11:14:52.612Z,29.00
2017-09-23T11:15:52.567Z,29.00
2017-09-23T11:16:52.558Z,29.00
2017-09-23T11:17:52.565Z,29.00
2017-09-23T11:18:52.566Z,29.00
2017-09-23T11:19:52.563Z,29.00
2017-09-23T11:20:52.599Z,29.00
2017-09-23T11:21:52.624Z,29.00
2017-09-23T11:22:52.568Z,29.00
2017-09-23T11:23:52.566Z,29.00
2017-09-23T11:24:52.649Z,28.40
2017-09-23T11:25:52.647Z,28.40
2017-09-23T11:26:52.648Z,28.40
2017-09-23T11:27:52.587Z,28.40
2017-09-23T11:28:52.678Z,28.40
2017-09-23T11:29:52.586Z,28.40
2017-09-23T11:30:52.649Z,28.40
2017-09-23T11:31:52.613Z,28.40
2017-09-23T11:32:52.646Z,28.40
2017-09-23T11:33:52.677Z,28.40
2017-09-23T11:34:52.655Z,27.30
2017-09-23T11:35:52.622Z,27.30
2017-09-23T11:36:52.581Z,27.30
2017-09-23T11:37:52.635Z,27.30
2017-09-23T11:38:52.650Z,27.30
2017-09-23T11:39:52.603Z,27.30
2017-09-23T11:40:52.551Z,27.30
2017-09-23T11:41:52.652Z,27.30
2017-09-23T11:42:52.564Z,27.30
2017-09-23T11:43:52.552Z,27.30
2017-09-23T11:44:52.582Z,25.20
2017-09-23T11:45:52.584Z,25.20
2017-09-23T11:46:52.584Z,25.20
2017-09-23T11:47:52.583Z,25.20
2017-09-23T11:48:52.586Z,25.20
2017-09-23T11:49:52.581Z,25.20
2017-09-23T11:50:52.610Z,25.20
2017-09-23T11:51:52.553Z,25.20
2017-09-23T11:52:52.584Z,25.20
2017-09-23T11:53:52.626Z,25.20
2017-09-23T11:54:52.666Z,27.80
2017-09-23T11:55:52.622Z,27.80
2017-09-23T11:56:52.575Z,27.80
2017-09-23T11:57:52.635Z,27.80
2017-09-23T11:58:52.621Z,27.80
2017-09-23T11:59:52.668Z,27.80
2017-09-23T12:00:52.668Z,27.80
2017-09-23T12:01:52.674Z,27.80
2017-09-23T12:02:52.629Z,27.80
2017-09-23T12:03:52.578Z,27.80
2017-09-23T12:04:52.674Z,26.80
2017-09-23T12:05:52.676Z,26.80
2017-09-23T12:06:52.690Z,26.80
2017-09-23T12:07:52.628Z,26.80
2017-09-23T12:08:52.674Z,26.80
2017-09-23T12:09:52.699Z,26.80
2017-09-23T12:10:52.676Z,26.80
2017-09-23T12:11:52.676Z,26.80
2017-09-23T12:12:52.679Z,26.80
2017-09-23T12:13:52.679Z,26.80
2017-09-23T12:14:52.646Z,27.30
2017-09-23T12:15:52.641Z,27.30
2017-09-23T12:16:52.668Z,27.30
2017-09-23T12:17:52.645Z,27.30
2017-09-23T12:18:52.672Z,27.30
2017-09-23T12:19:52.668Z,27.30
2017-09-23T12:20:52.664Z,27.30
2017-09-23T12:21:52.678Z,27.30
2017-09-23T12:22:52.600Z,27.30
2017-09-23T12:23:52.611Z,27.30
2017-09-23T12:24:52.590Z,25.00
2017-09-23T12:25:52.583Z,25.00
2017-09-23T12:26:52.593Z,25.00
2017-09-23T12:27:52.599Z,25.00
2017-09-23T12:28:52.639Z,25.00
2017-09-23T12:29:52.580Z,25.00
2017-09-23T12:30:52.651Z,25.00
2017-09-23T12:31:52.563Z,25.00
2017-09-23T12:32:52.596Z,25.00
2017-09-23T12:33:52.576Z,25.00
2017-09-23T12:34:52.694Z,29.50
2017-09-23T12:35:52.688Z,29.50
2017-09-23T12:36:52.700Z,29.50
2017-09-23T12:37:52.596Z,29.50
2017-09-23T12:38:52.648Z,29.50
2017-09-23T12:39:52.657Z,29.50
2017-09-23T12:40:52.674Z,29.50
2017-09-23T12:41:52.631Z,29.50
2017-09-23T12:42:52.646Z,29.50
2017-09-23T12:43:52.627Z,29.50
2017-09-23T12:44:52.693Z,29.20
2017-09-23T12:45:52.652Z,29.20
2017-09-23T12:46:52.724Z,29.20
2017-09-23T12:47:52.696Z,29.20
2017-09-23T12:48:52.787Z,29.20
2017-09-23T12:49:52.648Z,29.20
2017-09-23T12:50:52.721Z,29.20
2017-09-23T12:51:52.703Z,29.20
2017-09-23T12:52:52.653Z,29.20
2017-09-23T12:53:52.707Z,29.20
2017-09-23T12:54:52.729Z,32.50
2017-09-23T12:55:52.657Z,32.50
2017-09-23T12:56:52.656Z,32.50
2017-09-23T12:57:52.607Z,32.50
2017-09-23T12:58:52.706Z,32.50
2017-09-23T12:59:52.658Z,32.50
2017-09-23T13:00:52.724Z,32.50
2017-09-23T13:01:52.665Z,32.50
2017-09-23T13:02:52.642Z,32.50
2017-09-23T13:03:52.621Z,32.50
2017-09-23T13:04:52.611Z,32.50
2017-09-23T13:05:52.670Z,34.80
2017-09-23T13:06:52.695Z,34.80
2017-09-23T13:07:52.701Z,34.80
2017-09-23T13:08:52.656Z,34.80